NORTHERN NASSAU  -  Areal Flood Advisory Areal Flood Advisory     Flash Flood Watch Flash Flood Watch     Rip Current Statement Rip Current Statement        NORTHERN QUEENS  -  Areal Flood Advisory Areal Flood Advisory     Flash Flood Watch Flash Flood Watch     Rip Current Statement Rip Current Statement        SOUTHERN NASSAU  -  Areal Flood Advisory Areal Flood Advisory     Flash Flood Watch Flash Flood Watch     Rip Current Statement Rip Current Statement        SOUTHERN QUEENS  -  Areal Flood Advisory Areal Flood Advisory     Flash Flood Watch Flash Flood Watch     Rip Current Statement Rip Current Statement        NORTHEAST SUFFOLK  -  Rip Current Statement Rip Current Statement        NORTHWEST SUFFOLK  -  Rip Current Statement Rip Current Statement        SOUTHEAST SUFFOLK  -  Rip Current Statement Rip Current Statement        SOUTHWEST SUFFOLK  -  Rip Current Statement Rip Current Statement      

Active alerts

Northern Queens
  Details for Northern Queens Areal Flood Advisory  +2 additional alerts
Southern Queens
  Details for Southern Queens Areal Flood Advisory  +2 additional alerts
Northern Nassau
  Details for Northern Nassau Areal Flood Advisory  +2 additional alerts
Southern Nassau
  Details for Southern Nassau Areal Flood Advisory  +2 additional alerts
Northwest Suffolk
  Details for Northwest Suffolk Rip Current Statement
Southwest Suffolk
  Details for Southwest Suffolk Rip Current Statement
Northeast Suffolk
  Details for Northeast Suffolk Rip Current Statement
Southeast Suffolk
  Details for Southeast Suffolk Rip Current Statement


WXM80 ListenWXM80 Stop

You find our weather info also at:

UK Metoffice

WeatherCloud

Weather Underground

Northeastern Weather Network

AWEKAS

Citizen Weather Observer Program (CWOP)

HAMweather, WeatherForYou, PWS Weather


Weather Underground History page Text

Daily Summary for February 10, 2017 Units:  English    Metric   Both
« Previous Day
Next Day »
Daily Weekly Monthly Yearly Custom
  High: Low: Average:
Temperature: 33.4 °F 18.4 °F 26.3 °F
Dew Point: 22.8 °F 10.2 °F 17.7 °F
Humidity: 81 % 58 % 70 %
Wind Speed: 15.0 mph 0.0 mph 5.4 mph
Wind Gust: 23.0 mph - -
Wind:- - West
Pressure: 30.19 in 30.02 in -
Precipitation: 0.00 in    
Historical Graphs
 
 
Tabular Data for February 10, 2017
Time Temperature Dew Point Pressure Wind Wind Speed Wind Gust Humidity Rainfall Rate (Hourly)
00:03 18.5 °F 10.3 °F 30.02 in West 5.3 mph 11.5 mph 70 % 0.00 in
00:08 18.5 °F 10.3 °F 30.03 in WNW 6.0 mph 14.0 mph 70 % 0.00 in
00:13 18.5 °F 10.6 °F 30.03 in NW 7.0 mph 13.0 mph 71 % 0.00 in
00:18 18.4 °F 10.2 °F 30.03 in NW 9.0 mph 17.0 mph 70 % 0.00 in
00:23 18.5 °F 10.7 °F 30.03 in WNW 7.0 mph 16.0 mph 71 % 0.00 in
00:28 18.5 °F 11.0 °F 30.03 in WNW 6.0 mph 13.0 mph 72 % 0.00 in
00:33 18.5 °F 11.0 °F 30.03 in West 6.0 mph 18.0 mph 72 % 0.00 in
00:38 18.5 °F 11.3 °F 30.03 in West 8.0 mph 18.0 mph 73 % 0.00 in
00:43 18.5 °F 11.3 °F 30.03 in WSW 3.5 mph 17.3 mph 73 % 0.00 in
00:48 18.5 °F 11.3 °F 30.03 in NW 8.0 mph 16.1 mph 73 % 0.00 in
00:54 18.6 °F 11.4 °F 30.04 in West 4.9 mph 11.0 mph 73 % 0.00 in
00:59 18.6 °F 11.4 °F 30.04 in WNW 8.0 mph 16.1 mph 73 % 0.00 in
01:04 18.7 °F 11.8 °F 30.04 in WNW 9.1 mph 11.5 mph 74 % 0.00 in
01:09 18.8 °F 12.2 °F 30.04 in WNW 9.6 mph 14.0 mph 75 % 0.00 in
01:14 18.9 °F 12.0 °F 30.04 in WNW 7.8 mph 13.0 mph 74 % 0.00 in
01:19 19.0 °F 12.1 °F 30.04 in WSW 10.9 mph 17.3 mph 74 % 0.00 in
01:24 19.0 °F 12.4 °F 30.05 in North 7.2 mph 9.2 mph 75 % 0.00 in
01:29 19.0 °F 12.4 °F 30.04 in WNW 2.1 mph 6.9 mph 75 % 0.00 in
01:34 19.0 °F 12.7 °F 30.04 in NW 8.4 mph 11.5 mph 76 % 0.00 in
01:39 19.0 °F 12.4 °F 30.04 in West 6.3 mph 11.5 mph 75 % 0.00 in
01:44 18.9 °F 12.9 °F 30.05 in SW 7.8 mph 13.0 mph 77 % 0.00 in
01:49 19.0 °F 13.0 °F 30.05 in WSW 7.2 mph 15.0 mph 77 % 0.00 in
01:54 19.1 °F 13.4 °F 30.05 in West 9.6 mph 12.7 mph 78 % 0.00 in
01:59 19.1 °F 13.4 °F 30.05 in West 6.2 mph 12.7 mph 78 % 0.00 in
02:04 19.1 °F 13.7 °F 30.05 in WNW 7.2 mph 13.0 mph 79 % 0.00 in
02:09 19.2 °F 13.8 °F 30.05 in West 7.6 mph 15.0 mph 79 % 0.00 in
02:14 19.2 °F 14.0 °F 30.05 in WSW 8.5 mph 13.8 mph 80 % 0.00 in
02:19 19.2 °F 13.8 °F 30.05 in West 7.3 mph 11.5 mph 79 % 0.00 in
02:24 19.3 °F 13.6 °F 30.05 in SW 5.8 mph 9.2 mph 78 % 0.00 in
02:29 19.2 °F 13.5 °F 30.05 in South 7.6 mph 12.0 mph 78 % 0.00 in
02:34 19.2 °F 13.2 °F 30.06 in SW 5.7 mph 11.5 mph 77 % 0.00 in
02:39 19.2 °F 12.9 °F 30.05 in WNW 4.0 mph 11.0 mph 76 % 0.00 in
02:44 19.3 °F 13.0 °F 30.06 in SW 6.7 mph 10.0 mph 76 % 0.00 in
02:49 19.3 °F 13.0 °F 30.06 in WSW 10.7 mph 16.1 mph 76 % 0.00 in
02:54 19.4 °F 12.8 °F 30.06 in NW 7.2 mph 13.8 mph 75 % 0.00 in
02:59 19.4 °F 12.8 °F 30.06 in West 1.0 mph 1.2 mph 75 % 0.00 in
03:05 19.5 °F 12.6 °F 30.06 in West 4.4 mph 6.0 mph 74 % 0.00 in
03:10 19.5 °F 12.9 °F 30.06 in West 1.5 mph 4.6 mph 75 % 0.00 in
03:15 19.5 °F 13.2 °F 30.06 in SW 4.3 mph 10.0 mph 76 % 0.00 in
03:20 19.4 °F 13.1 °F 30.07 in West 2.0 mph 3.5 mph 76 % 0.00 in
03:25 19.4 °F 13.1 °F 30.07 in West 5.3 mph 12.0 mph 76 % 0.00 in
03:30 19.4 °F 13.1 °F 30.07 in West 4.1 mph 5.8 mph 76 % 0.00 in
03:35 19.5 °F 13.2 °F 30.07 in NW 5.1 mph 7.0 mph 76 % 0.00 in
03:40 19.5 °F 13.2 °F 30.08 in WNW 3.6 mph 8.1 mph 76 % 0.00 in
03:45 19.6 °F 13.3 °F 30.08 in SW 11.1 mph 19.0 mph 76 % 0.00 in
03:50 19.7 °F 13.1 °F 30.08 in West 7.5 mph 12.7 mph 75 % 0.00 in
03:55 19.8 °F 12.8 °F 30.09 in West 9.3 mph 13.0 mph 74 % 0.00 in
04:00 19.8 °F 12.8 °F 30.09 in SW 7.1 mph 15.0 mph 74 % 0.00 in
04:05 19.9 °F 12.9 °F 30.09 in WNW 6.7 mph 11.5 mph 74 % 0.00 in
04:10 19.9 °F 12.9 °F 30.09 in West 8.4 mph 16.1 mph 74 % 0.00 in
04:15 20.0 °F 13.0 °F 30.09 in WNW 8.1 mph 11.5 mph 74 % 0.00 in
04:20 20.1 °F 13.1 °F 30.09 in WSW 5.0 mph 9.2 mph 74 % 0.00 in
04:25 20.2 °F 13.2 °F 30.10 in WSW 5.0 mph 5.0 mph 74 % 0.00 in
04:30 20.2 °F 12.9 °F 30.10 in WNW 11.1 mph 13.8 mph 73 % 0.00 in
04:35 20.3 °F 13.3 °F 30.10 in WNW 7.6 mph 13.8 mph 74 % 0.00 in
04:40 20.3 °F 13.0 °F 30.11 in NW 7.1 mph 11.5 mph 73 % 0.00 in
04:45 20.4 °F 13.4 °F 30.11 in West 3.6 mph 9.2 mph 74 % 0.00 in
04:50 20.3 °F 13.6 °F 30.11 in WSW 9.0 mph 13.8 mph 75 % 0.00 in
04:55 20.4 °F 13.1 °F 30.11 in West 2.0 mph 8.1 mph 73 % 0.00 in
04:56 20.3 °F 13.0 °F 30.11 in West 3.7 mph 9.2 mph 73 % 0.00 in
05:01 20.3 °F 13.3 °F 30.11 in West 9.8 mph 13.8 mph 74 % 0.00 in
05:06 20.3 °F 13.3 °F 30.11 in WSW 6.7 mph 10.4 mph 74 % 0.00 in
05:11 20.3 °F 13.3 °F 30.11 in West 6.5 mph 11.5 mph 74 % 0.00 in
05:17 20.4 °F 13.4 °F 30.12 in West 7.1 mph 13.8 mph 74 % 0.00 in
05:22 20.5 °F 13.5 °F 30.12 in SW 7.8 mph 13.8 mph 74 % 0.00 in
05:27 20.6 °F 13.6 °F 30.12 in West 7.3 mph 11.5 mph 74 % 0.00 in
05:32 20.7 °F 13.7 °F 30.12 in WNW 5.6 mph 16.1 mph 74 % 0.00 in
05:37 20.7 °F 13.4 °F 30.12 in WNW 6.2 mph 13.8 mph 73 % 0.00 in
05:42 20.8 °F 13.5 °F 30.13 in WSW 7.0 mph 15.0 mph 73 % 0.00 in
05:47 20.9 °F 13.6 °F 30.13 in West 7.5 mph 11.5 mph 73 % 0.00 in
05:52 21.0 °F 13.7 °F 30.14 in WSW 8.1 mph 16.0 mph 73 % 0.00 in
05:57 21.1 °F 13.5 °F 30.14 in WSW 6.5 mph 10.0 mph 72 % 0.00 in
06:02 21.1 °F 13.5 °F 30.14 in WSW 6.4 mph 13.8 mph 72 % 0.00 in
06:07 21.1 °F 13.5 °F 30.14 in West 15.0 mph 15.0 mph 72 % 0.00 in
06:12 21.2 °F 13.9 °F 30.14 in West 14.8 mph 23.0 mph 73 % 0.00 in
06:17 21.2 °F 13.9 °F 30.15 in WNW 10.4 mph 11.5 mph 73 % 0.00 in
06:22 21.2 °F 14.2 °F 30.15 in WSW 4.8 mph 7.0 mph 74 % 0.00 in
06:27 21.3 °F 14.0 °F 30.15 in WSW 7.6 mph 18.0 mph 73 % 0.00 in
06:32 21.3 °F 13.7 °F 30.15 in WSW 7.5 mph 11.5 mph 72 % 0.00 in
06:37 21.3 °F 14.0 °F 30.15 in WSW 4.8 mph 10.4 mph 73 % 0.00 in
06:42 21.4 °F 13.8 °F 30.15 in SW 9.7 mph 12.7 mph 72 % 0.00 in
06:47 21.4 °F 14.1 °F 30.16 in West 7.3 mph 18.4 mph 73 % 0.00 in
06:52 21.4 °F 14.1 °F 30.16 in West 7.7 mph 12.7 mph 73 % 0.00 in
06:57 21.5 °F 13.9 °F 30.16 in West 5.2 mph 15.0 mph 72 % 0.00 in
07:02 21.5 °F 14.2 °F 30.16 in WNW 7.0 mph 13.8 mph 73 % 0.00 in
07:07 21.6 °F 14.3 °F 30.16 in West 4.2 mph 11.5 mph 73 % 0.00 in
07:12 21.6 °F 14.3 °F 30.16 in WSW 7.6 mph 12.0 mph 73 % 0.00 in
07:17 21.7 °F 14.1 °F 30.16 in WSW 12.0 mph 18.4 mph 72 % 0.00 in
07:23 21.8 °F 14.2 °F 30.16 in WSW 7.6 mph 11.5 mph 72 % 0.00 in
07:28 21.9 °F 14.6 °F 30.17 in West 7.1 mph 15.0 mph 73 % 0.00 in
07:33 21.9 °F 14.6 °F 30.17 in West 2.8 mph 10.0 mph 73 % 0.00 in
07:38 22.0 °F 14.3 °F 30.16 in WNW 7.3 mph 13.8 mph 72 % 0.00 in
07:43 22.1 °F 15.1 °F 30.16 in NW 9.8 mph 18.4 mph 74 % 0.00 in
07:48 22.2 °F 14.9 °F 30.16 in West 11.8 mph 18.4 mph 73 % 0.00 in
07:50 22.2 °F 14.9 °F 30.16 in SW 7.3 mph 12.7 mph 73 % 0.00 in
07:55 22.3 °F 15.0 °F 30.16 in WNW 8.1 mph 12.7 mph 73 % 0.00 in
08:00 22.4 °F 14.7 °F 30.16 in West 5.6 mph 10.4 mph 72 % 0.00 in
08:05 22.5 °F 14.8 °F 30.17 in SW 6.8 mph 13.8 mph 72 % 0.00 in
08:10 22.7 °F 15.0 °F 30.16 in SW 10.8 mph 12.7 mph 72 % 0.00 in
08:15 23.0 °F 15.3 °F 30.18 in WNW 5.2 mph 11.5 mph 72 % 0.00 in
08:20 23.3 °F 15.6 °F 30.18 in West 3.8 mph 11.5 mph 72 % 0.00 in
08:25 23.6 °F 15.6 °F 30.18 in WNW 4.6 mph 11.5 mph 71 % 0.00 in
08:30 23.8 °F 15.8 °F 30.18 in WNW 11.5 mph 16.1 mph 71 % 0.00 in
08:36 24.0 °F 15.3 °F 30.18 in WSW 9.3 mph 15.0 mph 69 % 0.00 in
08:41 24.3 °F 15.6 °F 30.18 in NW 5.6 mph 15.0 mph 69 % 0.00 in
08:46 24.6 °F 15.9 °F 30.18 in West 6.9 mph 17.3 mph 69 % 0.00 in
08:51 24.9 °F 16.5 °F 30.18 in WNW 8.4 mph 17.3 mph 70 % 0.00 in
08:56 25.2 °F 16.8 °F 30.18 in NW 9.0 mph 15.0 mph 70 % 0.00 in
09:01 25.6 °F 17.5 °F 30.18 in WSW 8.3 mph 11.5 mph 71 % 0.00 in
09:06 26.1 °F 17.0 °F 30.17 in NW 9.7 mph 16.1 mph 68 % 0.00 in
09:11 26.4 °F 17.6 °F 30.17 in WSW 10.1 mph 19.6 mph 69 % 0.00 in
09:16 26.6 °F 16.8 °F 30.17 in West 5.1 mph 10.4 mph 66 % 0.00 in
09:21 27.0 °F 17.8 °F 30.17 in West 5.1 mph 16.1 mph 68 % 0.00 in
09:26 27.2 °F 18.0 °F 30.18 in WNW 5.8 mph 10.4 mph 68 % 0.00 in
09:31 27.2 °F 17.3 °F 30.17 in WSW 5.0 mph 11.5 mph 66 % 0.00 in
09:36 27.2 °F 17.3 °F 30.18 in WNW 13.1 mph 20.7 mph 66 % 0.00 in
09:41 27.2 °F 17.7 °F 30.18 in WSW 5.1 mph 11.5 mph 67 % 0.00 in
09:46 27.5 °F 17.6 °F 30.18 in WNW 7.3 mph 19.6 mph 66 % 0.00 in
09:51 28.0 °F 18.1 °F 30.17 in SW 7.7 mph 18.0 mph 66 % 0.00 in
09:56 28.5 °F 18.6 °F 30.18 in NNW 3.7 mph 15.0 mph 66 % 0.00 in
09:58 28.6 °F 18.7 °F 30.18 in WNW 3.8 mph 6.9 mph 66 % 0.00 in
10:03 28.9 °F 18.6 °F 30.18 in WNW 6.6 mph 15.0 mph 65 % 0.00 in
10:08 29.1 °F 19.2 °F 30.18 in West 8.3 mph 12.7 mph 66 % 0.00 in
10:13 29.3 °F 18.6 °F 30.18 in West 7.7 mph 16.1 mph 64 % 0.00 in
10:18 29.3 °F 17.9 °F 30.18 in SW 8.1 mph 18.4 mph 62 % 0.01 in
10:23 29.5 °F 18.8 °F 30.18 in WSW 6.6 mph 11.5 mph 64 % 0.02 in
10:28 29.9 °F 19.9 °F 30.18 in WSW 7.8 mph 10.4 mph 66 % 0.02 in
10:33 30.3 °F 19.9 °F 30.18 in West 7.0 mph 11.5 mph 65 % 0.03 in
10:43 31.0 °F 19.9 °F 30.18 in WSW 6.2 mph 11.5 mph 63 % 0.04 in
10:48 31.2 °F 18.9 °F 30.18 in NW 6.0 mph 15.0 mph 60 % 0.05 in
10:53 31.3 °F 19.0 °F 30.18 in NW 8.8 mph 11.5 mph 60 % 0.05 in
10:58 31.4 °F 19.1 °F 30.18 in WNW 7.1 mph 16.1 mph 60 % 0.06 in
11:03 31.7 °F 19.0 °F 30.18 in SW 8.0 mph 17.3 mph 59 % 0.06 in
11:08 31.6 °F 19.7 °F 30.18 in WSW 7.0 mph 13.8 mph 61 % 0.07 in
11:13 31.7 °F 19.8 °F 30.19 in West 8.4 mph 14.0 mph 61 % 0.07 in
11:18 31.7 °F 19.4 °F 30.18 in WNW 3.0 mph 15.0 mph 60 % 0.00 in
11:23 31.5 °F 18.8 °F 30.19 in West 8.0 mph 20.0 mph 59 % 0.00 in
11:28 31.6 °F 19.7 °F 30.19 in West 9.0 mph 16.0 mph 61 % 0.00 in
11:33 31.9 °F 21.5 °F 30.19 in NW 8.2 mph 18.4 mph 65 % 0.05 in
11:38 31.9 °F 19.2 °F 30.19 in WNW 8.0 mph 20.0 mph 59 % 0.00 in
11:43 31.8 °F 19.5 °F 30.19 in WNW 9.0 mph 20.0 mph 60 % 0.00 in
11:48 31.5 °F 19.6 °F 30.19 in WNW 9.0 mph 21.0 mph 61 % 0.00 in
11:53 31.3 °F 19.0 °F 30.19 in NW 8.5 mph 11.5 mph 60 % 0.03 in
11:58 31.1 °F 19.2 °F 30.19 in West 7.8 mph 14.0 mph 61 % 0.02 in
12:01 31.0 °F 20.2 °F 30.19 in WNW 6.6 mph 11.5 mph 64 % 0.02 in
12:06 30.8 °F 18.9 °F 30.19 in WSW 8.3 mph 14.0 mph 61 % 0.02 in
12:09 30.8 °F 19.3 °F 30.19 in NW 6.6 mph 11.5 mph 62 % 0.01 in
12:11 30.8 °F 19.7 °F 30.19 in WNW 6.7 mph 12.7 mph 63 % 0.01 in
12:16 30.9 °F 19.8 °F 30.19 in West 7.2 mph 15.0 mph 63 % 0.01 in
12:17 31.0 °F 19.5 °F 30.19 in WNW 4.7 mph 15.0 mph 62 % 0.01 in
12:22 31.4 °F 19.9 °F 30.19 in WNW 8.9 mph 13.8 mph 62 % 0.01 in
12:23 31.4 °F 19.1 °F 30.18 in WSW 6.9 mph 13.8 mph 60 % 0.00 in
12:28 31.7 °F 20.5 °F 30.18 in West 4.3 mph 8.1 mph 63 % 0.00 in
12:33 32.2 °F 21.4 °F 30.19 in West 7.1 mph 9.0 mph 64 % 0.00 in
12:35 32.2 °F 21.0 °F 30.19 in West 6.4 mph 12.7 mph 63 % 0.00 in
12:40 32.3 °F 20.3 °F 30.19 in WSW 8.2 mph 13.0 mph 61 % 0.00 in
12:45 32.1 °F 21.3 °F 30.18 in NW 5.5 mph 11.0 mph 64 % 0.00 in
12:50 31.9 °F 21.1 °F 30.18 in West 4.9 mph 12.0 mph 64 % 0.00 in
12:55 31.6 °F 20.8 °F 30.18 in West 7.7 mph 11.5 mph 64 % 0.00 in
13:00 31.6 °F 20.1 °F 30.17 in West 6.3 mph 11.5 mph 62 % 0.00 in
13:05 31.9 °F 20.7 °F 30.17 in West 5.9 mph 11.5 mph 63 % 0.00 in
13:10 32.0 °F 20.8 °F 30.17 in WNW 5.1 mph 11.0 mph 63 % 0.00 in
13:15 32.4 °F 20.8 °F 30.17 in WNW 5.8 mph 10.4 mph 62 % 0.00 in
13:20 32.7 °F 21.5 °F 30.17 in WNW 6.5 mph 10.4 mph 63 % 0.00 in
13:25 33.0 °F 20.2 °F 30.17 in NW 7.7 mph 11.5 mph 59 % 0.00 in
13:30 33.3 °F 21.3 °F 30.17 in NW 7.6 mph 17.3 mph 61 % 0.00 in
13:35 33.4 °F 21.4 °F 30.17 in NW 9.8 mph 12.7 mph 61 % 0.00 in
13:40 33.4 °F 21.4 °F 30.17 in WNW 6.0 mph 11.5 mph 61 % 0.00 in
13:45 33.3 °F 20.9 °F 30.16 in West 6.5 mph 19.6 mph 60 % 0.00 in
13:51 33.2 °F 20.0 °F 30.16 in NW 8.4 mph 15.0 mph 58 % 0.00 in
13:56 33.2 °F 20.8 °F 30.16 in WNW 8.8 mph 16.1 mph 60 % 0.00 in
14:01 33.0 °F 21.0 °F 30.16 in WNW 5.4 mph 13.8 mph 61 % 0.00 in
14:06 33.0 °F 19.8 °F 30.16 in WSW 7.1 mph 12.7 mph 58 % 0.00 in
14:11 33.0 °F 20.2 °F 30.17 in NNW 6.6 mph 11.5 mph 59 % 0.00 in
14:16 33.0 °F 21.0 °F 30.16 in NW 6.2 mph 16.1 mph 61 % 0.00 in
14:21 33.0 °F 20.6 °F 30.16 in NW 7.7 mph 10.0 mph 60 % 0.00 in
14:26 33.0 °F 21.0 °F 30.16 in NW 3.9 mph 8.0 mph 61 % 0.00 in
14:31 33.0 °F 22.1 °F 30.16 in West 6.4 mph 10.0 mph 64 % 0.00 in
14:32 33.0 °F 21.4 °F 30.16 in NNW 4.8 mph 10.4 mph 62 % 0.00 in
14:37 32.9 °F 22.4 °F 30.16 in WNW 6.0 mph 11.5 mph 65 % 0.00 in
14:42 32.7 °F 21.5 °F 30.16 in WNW 6.0 mph 11.5 mph 63 % 0.00 in
14:47 32.4 °F 21.6 °F 30.16 in West 3.3 mph 11.5 mph 64 % 0.00 in
14:52 32.2 °F 21.0 °F 30.17 in NW 4.4 mph 13.0 mph 63 % 0.00 in
14:57 31.9 °F 20.3 °F 30.16 in WNW 8.0 mph 12.7 mph 62 % 0.00 in
15:03 31.6 °F 19.7 °F 30.17 in West 6.4 mph 13.8 mph 61 % 0.00 in
15:08 31.4 °F 19.9 °F 30.17 in WSW 6.8 mph 13.0 mph 62 % 0.00 in
15:13 31.2 °F 19.7 °F 30.17 in WNW 7.6 mph 10.4 mph 62 % 0.00 in
15:14 31.2 °F 20.1 °F 30.17 in West 7.3 mph 12.0 mph 63 % 0.00 in
15:19 31.1 °F 20.7 °F 30.17 in WNW 6.5 mph 6.9 mph 65 % 0.00 in
15:24 31.0 °F 19.9 °F 30.17 in WNW 2.7 mph 5.0 mph 63 % 0.00 in
15:29 30.9 °F 19.8 °F 30.17 in WNW 5.2 mph 8.1 mph 63 % 0.00 in
15:34 30.9 °F 20.1 °F 30.17 in West 5.5 mph 8.0 mph 64 % 0.00 in
15:39 30.8 °F 20.0 °F 30.17 in WNW 3.1 mph 5.0 mph 64 % 0.00 in
15:44 30.8 °F 20.4 °F 30.17 in NNW 4.0 mph 6.9 mph 65 % 0.00 in
15:49 30.8 °F 20.4 °F 30.17 in NW 2.9 mph 3.5 mph 65 % 0.00 in
15:54 30.8 °F 20.8 °F 30.17 in WNW 4.3 mph 6.9 mph 66 % 0.00 in
15:59 30.7 °F 20.0 °F 30.16 in WNW 3.0 mph 8.1 mph 64 % 0.00 in
16:04 30.7 °F 20.3 °F 30.17 in WNW 3.9 mph 8.1 mph 65 % 0.00 in
16:09 30.6 °F 20.6 °F 30.16 in WNW 3.5 mph 6.9 mph 66 % 0.00 in
16:14 30.6 °F 20.6 °F 30.16 in West 1.4 mph 3.5 mph 66 % 0.00 in
16:19 30.6 °F 21.6 °F 30.15 in WNW 1.1 mph 4.6 mph 69 % 0.00 in
16:25 30.6 °F 21.6 °F 30.16 in WNW 2.3 mph 4.6 mph 69 % 0.00 in
16:30 30.5 °F 20.8 °F 30.16 in WNW 3.9 mph 4.6 mph 67 % 0.00 in
16:35 30.5 °F 20.8 °F 30.16 in West 3.6 mph 4.6 mph 67 % 0.00 in
16:40 30.4 °F 20.7 °F 30.16 in West 4.1 mph 7.0 mph 67 % 0.00 in
16:45 30.4 °F 20.0 °F 30.16 in West 1.4 mph 4.6 mph 65 % 0.00 in
16:50 30.4 °F 20.4 °F 30.16 in WNW 2.2 mph 5.0 mph 66 % 0.00 in
16:55 30.3 °F 21.0 °F 30.17 in WNW 0.3 mph 3.5 mph 68 % 0.00 in
17:00 30.3 °F 20.3 °F 30.17 in WSW 1.2 mph 4.6 mph 66 % 0.00 in
17:05 30.1 °F 19.7 °F 30.17 in West 2.2 mph 3.5 mph 65 % 0.00 in
17:10 30.1 °F 19.4 °F 30.17 in WSW 4.1 mph 6.9 mph 64 % 0.00 in
17:15 29.9 °F 20.3 °F 30.17 in SW 1.1 mph 3.5 mph 67 % 0.00 in
17:20 29.8 °F 19.8 °F 30.17 in SW 1.5 mph 4.0 mph 66 % 0.00 in
17:25 29.6 °F 19.3 °F 30.17 in WSW 3.2 mph 4.0 mph 65 % 0.00 in
17:30 29.5 °F 19.2 °F 30.17 in WSW 2.9 mph 4.0 mph 65 % 0.00 in
17:35 29.4 °F 19.1 °F 30.17 in WSW 3.2 mph 4.6 mph 65 % 0.00 in
17:40 29.3 °F 19.3 °F 30.17 in SW 3.8 mph 5.8 mph 66 % 0.00 in
17:45 29.1 °F 19.2 °F 30.17 in WSW 2.1 mph 3.5 mph 66 % 0.00 in
17:50 29.0 °F 19.1 °F 30.17 in SW 1.4 mph 3.5 mph 66 % 0.00 in
17:56 28.9 °F 19.3 °F 30.17 in WSW 1.5 mph 3.5 mph 67 % 0.00 in
18:01 28.7 °F 19.1 °F 30.17 in WSW 3.0 mph 4.6 mph 67 % 0.00 in
18:06 28.5 °F 18.9 °F 30.17 in SW 2.0 mph 3.0 mph 67 % 0.00 in
18:11 28.4 °F 19.2 °F 30.17 in SW 3.9 mph 5.8 mph 68 % 0.00 in
18:16 28.3 °F 19.1 °F 30.17 in SW 1.1 mph 3.5 mph 68 % 0.00 in
18:21 28.2 °F 19.3 °F 30.17 in SW 1.6 mph 4.6 mph 69 % 0.00 in
18:26 28.1 °F 18.9 °F 30.17 in SW 0.3 mph 2.3 mph 68 % 0.00 in
18:31 28.0 °F 19.5 °F 30.16 in SW 3.4 mph 4.6 mph 70 % 0.00 in
18:36 28.0 °F 19.5 °F 30.16 in SW 0.5 mph 3.5 mph 70 % 0.00 in
18:41 27.9 °F 19.4 °F 30.16 in SW 0.8 mph 3.5 mph 70 % 0.00 in
18:46 27.9 °F 19.4 °F 30.16 in SW 1.0 mph 3.5 mph 70 % 0.00 in
18:51 27.8 °F 19.6 °F 30.16 in SW 1.7 mph 4.0 mph 71 % 0.00 in
18:56 27.7 °F 19.5 °F 30.15 in WSW 1.6 mph 3.5 mph 71 % 0.00 in
19:01 27.7 °F 19.5 °F 30.15 in SSW 2.5 mph 3.5 mph 71 % 0.00 in
19:06 27.7 °F 19.5 °F 30.15 in SW 3.6 mph 6.9 mph 71 % 0.00 in
19:11 27.7 °F 19.5 °F 30.16 in SW 2.5 mph 3.5 mph 71 % 0.00 in
19:17 27.6 °F 19.8 °F 30.16 in SSW 2.1 mph 5.8 mph 72 % 0.00 in
19:22 27.7 °F 19.8 °F 30.15 in SW 3.1 mph 5.0 mph 72 % 0.00 in
19:27 27.7 °F 19.8 °F 30.14 in SW 5.4 mph 8.1 mph 72 % 0.00 in
19:32 27.8 °F 20.3 °F 30.14 in SW 2.1 mph 3.5 mph 73 % 0.00 in
19:37 27.8 °F 19.9 °F 30.14 in SW 5.0 mph 6.9 mph 72 % 0.00 in
19:42 27.9 °F 20.4 °F 30.14 in WSW 3.6 mph 6.0 mph 73 % 0.00 in
19:47 27.9 °F 20.0 °F 30.13 in WSW 3.3 mph 6.9 mph 72 % 0.00 in
19:52 27.9 °F 20.0 °F 30.13 in SSW 1.9 mph 3.5 mph 72 % 0.00 in
19:57 27.9 °F 20.4 °F 30.13 in West 2.7 mph 5.0 mph 73 % 0.00 in
20:02 28.0 °F 20.1 °F 30.14 in WSW 3.7 mph 4.6 mph 72 % 0.00 in
20:07 28.0 °F 20.8 °F 30.15 in WSW 4.6 mph 5.8 mph 74 % 0.00 in
20:12 28.0 °F 20.5 °F 30.14 in WSW 2.2 mph 8.1 mph 73 % 0.00 in
20:17 28.0 °F 20.5 °F 30.13 in SSW 4.9 mph 6.9 mph 73 % 0.00 in
20:22 28.1 °F 20.2 °F 30.13 in WSW 5.1 mph 6.9 mph 72 % 0.00 in
20:27 28.1 °F 20.6 °F 30.14 in SW 2.4 mph 5.8 mph 73 % 0.00 in
20:32 28.1 °F 20.2 °F 30.13 in SW 2.9 mph 4.6 mph 72 % 0.00 in
20:37 28.1 °F 20.2 °F 30.13 in SW 1.3 mph 4.6 mph 72 % 0.00 in
20:42 28.1 °F 20.6 °F 30.13 in WSW 1.1 mph 4.6 mph 73 % 0.00 in
20:47 28.2 °F 20.7 °F 30.13 in SW 2.5 mph 5.0 mph 73 % 0.00 in
20:52 28.2 °F 20.7 °F 30.13 in WSW 2.1 mph 2.3 mph 73 % 0.00 in
20:57 28.2 °F 20.7 °F 30.12 in SW 3.3 mph 4.6 mph 73 % 0.00 in
21:02 28.2 °F 20.7 °F 30.12 in WSW 4.2 mph 4.2 mph 73 % 0.00 in
21:07 28.2 °F 21.0 °F 30.13 in SW 3.0 mph 8.1 mph 74 % 0.00 in
21:12 28.2 °F 20.7 °F 30.12 in SW 2.2 mph 3.5 mph 73 % 0.00 in
21:17 28.2 °F 20.7 °F 30.12 in SSW 2.9 mph 6.9 mph 73 % 0.00 in
21:23 28.2 °F 20.7 °F 30.12 in SW 4.0 mph 4.6 mph 73 % 0.00 in
21:28 28.2 °F 20.7 °F 30.12 in WSW 1.5 mph 3.5 mph 73 % 0.00 in
21:33 28.2 °F 20.7 °F 30.12 in WSW 1.8 mph 3.5 mph 73 % 0.00 in
21:38 28.2 °F 21.0 °F 30.11 in Calm   1.2 mph 74 % 0.00 in
21:43 28.2 °F 21.3 °F 30.12 in WSW 1.4 mph 2.3 mph 75 % 0.00 in
21:48 28.2 °F 21.3 °F 30.12 in SW 2.1 mph 4.6 mph 75 % 0.00 in
21:53 28.2 °F 21.0 °F 30.11 in SW 1.7 mph 3.5 mph 74 % 0.00 in
21:58 28.2 °F 21.0 °F 30.11 in SW 0.6 mph 2.3 mph 74 % 0.00 in
22:03 28.2 °F 21.0 °F 30.12 in SW 1.3 mph 3.5 mph 74 % 0.00 in
22:08 28.2 °F 21.3 °F 30.12 in SW 1.2 mph 2.3 mph 75 % 0.00 in
22:13 28.2 °F 21.0 °F 30.12 in Calm     74 % 0.00 in
22:18 28.2 °F 21.3 °F 30.12 in SW 0.3 mph 1.2 mph 75 % 0.00 in
22:23 28.2 °F 21.3 °F 30.12 in SW 1.6 mph 2.3 mph 75 % 0.00 in
22:28 28.2 °F 21.0 °F 30.12 in SW 0.2 mph 2.0 mph 74 % 0.00 in
22:33 28.2 °F 21.3 °F 30.13 in SW 3.6 mph 4.6 mph 75 % 0.00 in
22:38 28.2 °F 21.0 °F 30.12 in Calm     74 % 0.00 in
22:43 28.2 °F 21.0 °F 30.12 in WSW 2.0 mph 9.0 mph 74 % 0.00 in
22:48 28.2 °F 21.0 °F 30.12 in SW 6.0 mph 9.0 mph 74 % 0.00 in
22:53 28.2 °F 21.3 °F 30.13 in SW 7.0 mph 12.0 mph 75 % 0.00 in
22:58 28.2 °F 21.6 °F 30.12 in SW 2.0 mph 4.6 mph 76 % 0.00 in
23:03 28.2 °F 21.9 °F 30.12 in WSW 4.9 mph 8.1 mph 77 % 0.00 in
23:08 28.1 °F 21.8 °F 30.12 in SW 3.0 mph 8.0 mph 77 % 0.00 in
23:13 28.0 °F 21.7 °F 30.12 in WSW 4.1 mph 6.9 mph 77 % 0.00 in
23:18 28.0 °F 21.7 °F 30.12 in WSW 3.0 mph 5.8 mph 77 % 0.00 in
23:23 27.9 °F 22.0 °F 30.12 in Calm   3.0 mph 78 % 0.00 in
23:28 27.9 °F 21.9 °F 30.12 in Calm   3.0 mph 78 % 0.00 in
23:33 27.9 °F 22.2 °F 30.12 in Calm   3.0 mph 79 % 0.00 in
23:38 27.9 °F 22.2 °F 30.12 in WSW 1.0 mph 2.0 mph 79 % 0.00 in
23:43 27.9 °F 22.2 °F 30.12 in Calm     79 % 0.00 in
23:48 27.9 °F 22.5 °F 30.12 in Calm   4.0 mph 80 % 0.00 in
23:53 27.9 °F 22.5 °F 30.11 in Calm   1.0 mph 80 % 0.00 in
23:58 27.9 °F 22.8 °F 30.11 in WSW 1.2 mph 1.2 mph 81 % 0.00 in
Crab Meadow Weather
Compliments of Weather Underground - 3 mb

Script developed by  Jim McMurry - jmcmurry@mwt.net Adapted for the template by  Wim van der Kuil - Leuven-Template.eu

Astronomy: It takes 16 million horsepower to break loose from the Earth's gravitational pull.